sensor_id;sensor_type;location;lat;lon;timestamp;pressure;altitude;pressure_sealevel;temperature;humidity
59789;BME280;47353;51.614;5.530;2022-10-30T00:01:21;101585.41;;;14.87;85.90
59789;BME280;47353;51.614;5.530;2022-10-30T00:03:47;101583.19;;;14.84;86.04
59789;BME280;47353;51.614;5.530;2022-10-30T00:06:12;101574.59;;;14.76;86.76
59789;BME280;47353;51.614;5.530;2022-10-30T00:08:38;101572.66;;;14.76;86.33
59789;BME280;47353;51.614;5.530;2022-10-30T00:11:07;101584.38;;;14.73;86.74
59789;BME280;47353;51.614;5.530;2022-10-30T00:13:32;101584.94;;;14.75;86.61
59789;BME280;47353;51.614;5.530;2022-10-30T00:15:58;101581.31;;;14.75;86.57
59789;BME280;47353;51.614;5.530;2022-10-30T00:18:23;101574.09;;;14.69;86.76
59789;BME280;47353;51.614;5.530;2022-10-30T00:20:49;101581.06;;;14.66;87.00
59789;BME280;47353;51.614;5.530;2022-10-30T00:23:14;101581.94;;;14.62;87.47
59789;BME280;47353;51.614;5.530;2022-10-30T00:25:40;101568.81;;;14.62;87.18
59789;BME280;47353;51.614;5.530;2022-10-30T00:28:06;101579.16;;;14.62;87.44
59789;BME280;47353;51.614;5.530;2022-10-30T00:30:32;101582.53;;;14.54;87.73
59789;BME280;47353;51.614;5.530;2022-10-30T00:32:58;101582.81;;;14.52;88.09
59789;BME280;47353;51.614;5.530;2022-10-30T00:35:23;101582.81;;;14.52;87.81
59789;BME280;47353;51.614;5.530;2022-10-30T00:37:49;101581.19;;;14.41;88.24
59789;BME280;47353;51.614;5.530;2022-10-30T00:40:15;101578.69;;;14.35;88.80
59789;BME280;47353;51.614;5.530;2022-10-30T00:42:42;101584.53;;;14.33;88.87
59789;BME280;47353;51.614;5.530;2022-10-30T00:45:14;101580.69;;;14.29;89.14
59789;BME280;47353;51.614;5.530;2022-10-30T00:47:49;101569.22;;;14.21;89.38
59789;BME280;47353;51.614;5.530;2022-10-30T00:50:20;101572.03;;;14.21;89.53
59789;BME280;47353;51.614;5.530;2022-10-30T00:53:08;101567.31;;;14.26;89.20
59789;BME280;47353;51.614;5.530;2022-10-30T00:55:42;101564.53;;;14.26;89.45
59789;BME280;47353;51.614;5.530;2022-10-30T00:58:12;101565.91;;;14.34;89.10
59789;BME280;47353;51.614;5.530;2022-10-30T01:00:43;101570.63;;;14.33;89.18
59789;BME280;47353;51.614;5.530;2022-10-30T01:03:10;101566.19;;;14.27;89.63
59789;BME280;47353;51.614;5.530;2022-10-30T01:05:36;101573.97;;;14.25;90.01
59789;BME280;47353;51.614;5.530;2022-10-30T01:08:02;101577.06;;;14.24;89.92
59789;BME280;47353;51.614;5.530;2022-10-30T01:10:28;101576.19;;;14.28;89.73
59789;BME280;47353;51.614;5.530;2022-10-30T01:12:54;101572.03;;;14.26;90.07
59789;BME280;47353;51.614;5.530;2022-10-30T01:15:26;101574.28;;;14.19;90.10
59789;BME280;47353;51.614;5.530;2022-10-30T01:26:42;101582.88;;;14.17;90.28
59789;BME280;47353;51.614;5.530;2022-10-30T01:33:59;101582.91;;;14.12;90.64
59789;BME280;47353;51.614;5.530;2022-10-30T01:36:51;101578.72;;;14.10;90.37
59789;BME280;47353;51.614;5.530;2022-10-30T01:39:24;101578.22;;;14.03;90.82
59789;BME280;47353;51.614;5.530;2022-10-30T01:41:51;101583.50;;;14.04;91.08
59789;BME280;47353;51.614;5.530;2022-10-30T01:44:22;101572.91;;;14.01;91.08
59789;BME280;47353;51.614;5.530;2022-10-30T01:47:28;101594.06;;;14.02;91.04
59789;BME280;47353;51.614;5.530;2022-10-30T01:50:13;101584.63;;;13.98;91.31
59789;BME280;47353;51.614;5.530;2022-10-30T01:52:51;101586.56;;;13.98;91.25
59789;BME280;47353;51.614;5.530;2022-10-30T01:55:35;101581.00;;;13.98;91.42
59789;BME280;47353;51.614;5.530;2022-10-30T02:00:52;101574.06;;;13.90;91.58
59789;BME280;47353;51.614;5.530;2022-10-30T02:03:18;101579.06;;;13.88;91.82
59789;BME280;47353;51.614;5.530;2022-10-30T02:05:50;101585.47;;;13.89;92.21
59789;BME280;47353;51.614;5.530;2022-10-30T02:08:16;101588.81;;;13.91;92.33
59789;BME280;47353;51.614;5.530;2022-10-30T02:10:43;101588.81;;;13.91;92.36
59789;BME280;47353;51.614;5.530;2022-10-30T02:13:10;101588.53;;;13.92;92.33
59789;BME280;47353;51.614;5.530;2022-10-30T02:15:36;101595.19;;;13.91;92.11
59789;BME280;47353;51.614;5.530;2022-10-30T02:18:02;101600.50;;;13.83;92.72
59789;BME280;47353;51.614;5.530;2022-10-30T02:20:28;101597.16;;;13.81;92.72
59789;BME280;47353;51.614;5.530;2022-10-30T02:22:53;101588.28;;;13.79;93.15
59789;BME280;47353;51.614;5.530;2022-10-30T02:25:19;101590.22;;;13.78;93.19
59789;BME280;47353;51.614;5.530;2022-10-30T02:27:44;101588.00;;;13.65;93.49
59789;BME280;47353;51.614;5.530;2022-10-30T02:30:10;101589.38;;;13.58;93.77
59789;BME280;47353;51.614;5.530;2022-10-30T02:32:36;101603.00;;;13.59;94.39
59789;BME280;47353;51.614;5.530;2022-10-30T02:35:02;101605.50;;;13.56;94.44
59789;BME280;47353;51.614;5.530;2022-10-30T02:37:28;101601.34;;;13.58;94.46
59789;BME280;47353;51.614;5.530;2022-10-30T02:39:53;101601.34;;;13.58;94.06
59789;BME280;47353;51.614;5.530;2022-10-30T02:42:19;101602.47;;;13.57;94.04
59789;BME280;47353;51.614;5.530;2022-10-30T02:44:44;101598.84;;;13.52;94.42
59789;BME280;47353;51.614;5.530;2022-10-30T02:47:10;101611.34;;;13.59;94.53
59789;BME280;47353;51.614;5.530;2022-10-30T02:49:35;101608.84;;;13.58;94.24
59789;BME280;47353;51.614;5.530;2022-10-30T02:52:00;101601.06;;;13.50;94.99
59789;BME280;47353;51.614;5.530;2022-10-30T02:54:26;101606.91;;;13.53;94.86
59789;BME280;47353;51.614;5.530;2022-10-30T02:56:51;101607.47;;;13.55;94.82
59789;BME280;47353;51.614;5.530;2022-10-30T02:59:17;101608.03;;;13.57;94.78
59789;BME280;47353;51.614;5.530;2022-10-30T03:01:42;101601.34;;;13.48;95.12
59789;BME280;47353;51.614;5.530;2022-10-30T03:04:08;101599.13;;;13.40;95.47
59789;BME280;47353;51.614;5.530;2022-10-30T03:06:33;101599.41;;;13.38;95.57
59789;BME280;47353;51.614;5.530;2022-10-30T03:08:59;101596.63;;;13.33;95.89
59789;BME280;47353;51.614;5.530;2022-10-30T03:11:24;101597.72;;;13.27;96.24
59789;BME280;47353;51.614;5.530;2022-10-30T03:13:50;101595.50;;;13.24;96.13
59789;BME280;47353;51.614;5.530;2022-10-30T03:16:20;101592.41;;;13.16;96.52
59789;BME280;47353;51.614;5.530;2022-10-30T03:18:47;101588.25;;;13.08;96.99
59789;BME280;47353;51.614;5.530;2022-10-30T03:21:18;101603.81;;;13.04;97.13
59789;BME280;47353;51.614;5.530;2022-10-30T03:23:44;101595.69;;;12.98;97.36
59789;BME280;47353;51.614;5.530;2022-10-30T03:26:10;101596.25;;;12.95;97.96
59789;BME280;47353;51.614;5.530;2022-10-30T03:28:35;101590.66;;;12.90;98.00
59789;BME280;47353;51.614;5.530;2022-10-30T03:31:05;101587.91;;;12.90;98.44
59789;BME280;47353;51.614;5.530;2022-10-30T03:33:31;101585.13;;;12.90;98.85
59789;BME280;47353;51.614;5.530;2022-10-30T03:35:57;101591.78;;;12.94;99.16
59789;BME280;47353;51.614;5.530;2022-10-30T03:38:23;101587.91;;;12.95;98.82
59789;BME280;47353;51.614;5.530;2022-10-30T03:40:48;101594.03;;;12.92;98.74
59789;BME280;47353;51.614;5.530;2022-10-30T03:43:14;101584.28;;;12.84;98.81
59789;BME280;47353;51.614;5.530;2022-10-30T03:45:50;101596.22;;;12.90;99.31
59789;BME280;47353;51.614;5.530;2022-10-30T03:48:16;101593.44;;;12.90;99.18
59789;BME280;47353;51.614;5.530;2022-10-30T03:50:42;101599.28;;;12.88;99.59
59789;BME280;47353;51.614;5.530;2022-10-30T03:53:07;101593.44;;;12.85;99.26
59789;BME280;47353;51.614;5.530;2022-10-30T03:55:33;101599.53;;;12.82;99.49
59789;BME280;47353;51.614;5.530;2022-10-30T03:57:58;101605.09;;;12.82;100.00
59789;BME280;47353;51.614;5.530;2022-10-30T04:00:23;101607.06;;;12.81;100.00
59789;BME280;47353;51.614;5.530;2022-10-30T04:02:50;101613.16;;;12.83;100.00
59789;BME280;47353;51.614;5.530;2022-10-30T04:05:18;101612.06;;;12.84;100.00
59789;BME280;47353;51.614;5.530;2022-10-30T04:07:44;101614.81;;;12.79;100.00
59789;BME280;47353;51.614;5.530;2022-10-30T04:10:11;101613.13;;;12.73;100.00
59789;BME280;47353;51.614;5.530;2022-10-30T04:12:37;101612.84;;;12.75;100.00
59789;BME280;47353;51.614;5.530;2022-10-30T04:15:04;101609.50;;;12.73;100.00
59789;BME280;47353;51.614;5.530;2022-10-30T04:17:30;101616.72;;;12.69;100.00
59789;BME280;47353;51.614;5.530;2022-10-30T04:19:55;101620.88;;;12.66;100.00
59789;BME280;47353;51.614;5.530;2022-10-30T04:22:21;101611.72;;;12.66;100.00
59789;BME280;47353;51.614;5.530;2022-10-30T04:24:46;101608.91;;;12.61;100.00
59789;BME280;47353;51.614;5.530;2022-10-30T04:27:13;101591.69;;;12.59;100.00
59789;BME280;47353;51.614;5.530;2022-10-30T04:29:39;101604.47;;;12.60;100.00
59789;BME280;47353;51.614;5.530;2022-10-30T04:32:06;101595.81;;;12.51;100.00
59789;BME280;47353;51.614;5.530;2022-10-30T04:34:32;101603.31;;;12.51;100.00
59789;BME280;47353;51.614;5.530;2022-10-30T04:36:57;101609.97;;;12.50;100.00
59789;BME280;47353;51.614;5.530;2022-10-30T04:39:23;101603.84;;;12.43;100.00
59789;BME280;47353;51.614;5.530;2022-10-30T04:41:48;101606.63;;;12.43;100.00
59789;BME280;47353;51.614;5.530;2022-10-30T04:44:13;101607.72;;;12.37;100.00
59789;BME280;47353;51.614;5.530;2022-10-30T04:46:39;101604.94;;;12.37;100.00
59789;BME280;47353;51.614;5.530;2022-10-30T04:49:04;101598.22;;;12.33;100.00
59789;BME280;47353;51.614;5.530;2022-10-30T04:51:30;101598.81;;;12.35;100.00
59789;BME280;47353;51.614;5.530;2022-10-30T04:53:55;101595.41;;;12.28;100.00
59789;BME280;47353;51.614;5.530;2022-10-30T04:56:21;101590.41;;;12.25;100.00
59789;BME280;47353;51.614;5.530;2022-10-30T04:58:46;101585.41;;;12.22;100.00
59789;BME280;47353;51.614;5.530;2022-10-30T05:01:11;101560.72;;;12.25;100.00
59789;BME280;47353;51.614;5.530;2022-10-30T05:03:37;101567.13;;;12.26;100.00
59789;BME280;47353;51.614;5.530;2022-10-30T05:06:14;101562.94;;;12.18;100.00
59789;BME280;47353;51.614;5.530;2022-10-30T05:08:41;101577.91;;;12.22;100.00
59789;BME280;47353;51.614;5.530;2022-10-30T05:11:06;101573.47;;;12.21;100.00
59789;BME280;47353;51.614;5.530;2022-10-30T05:13:32;101575.44;;;12.26;100.00
59789;BME280;47353;51.614;5.530;2022-10-30T05:15:57;101581.28;;;12.24;100.00
59789;BME280;47353;51.614;5.530;2022-10-30T05:18:23;101581.28;;;12.24;100.00
59789;BME280;47353;51.614;5.530;2022-10-30T05:20:48;101580.47;;;12.29;100.00
59789;BME280;47353;51.614;5.530;2022-10-30T05:23:13;101588.22;;;12.27;100.00
59789;BME280;47353;51.614;5.530;2022-10-30T05:25:39;101590.13;;;12.26;100.00
59789;BME280;47353;51.614;5.530;2022-10-30T05:28:05;101586.25;;;12.22;100.00
59789;BME280;47353;51.614;5.530;2022-10-30T05:30:33;101580.66;;;12.17;100.00
59789;BME280;47353;51.614;5.530;2022-10-30T05:33:03;101585.09;;;12.13;100.00
59789;BME280;47353;51.614;5.530;2022-10-30T05:35:30;101584.78;;;12.10;100.00
59789;BME280;47353;51.614;5.530;2022-10-30T05:37:57;101582.28;;;12.08;100.00
59789;BME280;47353;51.614;5.530;2022-10-30T05:40:23;101598.88;;;12.03;100.00
59789;BME280;47353;51.614;5.530;2022-10-30T05:42:49;101594.19;;;12.04;100.00
59789;BME280;47353;51.614;5.530;2022-10-30T05:45:15;101599.16;;;12.02;100.00
59789;BME280;47353;51.614;5.530;2022-10-30T05:47:41;101602.78;;;12.02;100.00
59789;BME280;47353;51.614;5.530;2022-10-30T05:50:06;101593.06;;;12.00;100.00
59789;BME280;47353;51.614;5.530;2022-10-30T05:52:32;101593.34;;;11.98;100.00
59789;BME280;47353;51.614;5.530;2022-10-30T05:54:58;101596.91;;;11.94;100.00
59789;BME280;47353;51.614;5.530;2022-10-30T05:57:23;101591.63;;;11.92;100.00
59789;BME280;47353;51.614;5.530;2022-10-30T05:59:48;101596.28;;;11.87;100.00
59789;BME280;47353;51.614;5.530;2022-10-30T06:02:15;101594.59;;;11.81;100.00
59789;BME280;47353;51.614;5.530;2022-10-30T06:04:41;101593.47;;;11.77;100.00
59789;BME280;47353;51.614;5.530;2022-10-30T06:07:06;101590.06;;;11.69;100.00
59789;BME280;47353;51.614;5.530;2022-10-30T06:09:32;101590.34;;;11.68;100.00
59789;BME280;47353;51.614;5.530;2022-10-30T06:11:57;101588.59;;;11.62;100.00
59789;BME280;47353;51.614;5.530;2022-10-30T06:14:23;101591.31;;;11.57;100.00
59789;BME280;47353;51.614;5.530;2022-10-30T06:16:49;101593.50;;;11.50;100.00
59789;BME280;47353;51.614;5.530;2022-10-30T06:19:14;101596.22;;;11.45;100.00
59789;BME280;47353;51.614;5.530;2022-10-30T06:21:39;101596.75;;;11.42;100.00
59789;BME280;47353;51.614;5.530;2022-10-30T06:24:05;101596.97;;;11.35;100.00
59789;BME280;47353;51.614;5.530;2022-10-30T06:26:30;101598.28;;;11.28;100.00
59789;BME280;47353;51.614;5.530;2022-10-30T06:28:56;101606.06;;;11.31;100.00
59789;BME280;47353;51.614;5.530;2022-10-30T06:31:21;101591.34;;;11.25;100.00
59789;BME280;47353;51.614;5.530;2022-10-30T06:33:47;101596.03;;;11.25;100.00
59789;BME280;47353;51.614;5.530;2022-10-30T06:36:12;101597.97;;;11.24;100.00
59789;BME280;47353;51.614;5.530;2022-10-30T06:38:37;101588.00;;;11.23;100.00
59789;BME280;47353;51.614;5.530;2022-10-30T06:41:03;101588.84;;;11.24;100.00
59789;BME280;47353;51.614;5.530;2022-10-30T06:43:30;101587.16;;;11.23;100.00
59789;BME280;47353;51.614;5.530;2022-10-30T06:45:59;101584.94;;;11.25;100.00
59789;BME280;47353;51.614;5.530;2022-10-30T06:48:24;101586.94;;;11.29;100.00
59789;BME280;47353;51.614;5.530;2022-10-30T06:50:54;101583.91;;;11.31;100.00
59789;BME280;47353;51.614;5.530;2022-10-30T06:53:20;101584.47;;;11.33;100.00
59789;BME280;47353;51.614;5.530;2022-10-30T06:55:55;101593.97;;;11.42;100.00
59789;BME280;47353;51.614;5.530;2022-10-30T06:58:21;101586.25;;;11.44;100.00
59789;BME280;47353;51.614;5.530;2022-10-30T07:00:47;101591.56;;;11.50;100.00
59789;BME280;47353;51.614;5.530;2022-10-30T07:03:12;101577.41;;;11.47;100.00
59789;BME280;47353;51.614;5.530;2022-10-30T07:05:38;101592.75;;;11.59;100.00
59789;BME280;47353;51.614;5.530;2022-10-30T07:08:03;101588.88;;;11.60;100.00
59789;BME280;47353;51.614;5.530;2022-10-30T07:10:29;101579.19;;;11.63;100.00
59789;BME280;47353;51.614;5.530;2022-10-30T07:12:55;101576.44;;;11.63;100.00
59789;BME280;47353;51.614;5.530;2022-10-30T07:15:21;101570.38;;;11.71;100.00
59789;BME280;47353;51.614;5.530;2022-10-30T07:17:54;101579.03;;;11.74;100.00
59789;BME280;47353;51.614;5.530;2022-10-30T07:20:20;101572.13;;;11.82;100.00
59789;BME280;47353;51.614;5.530;2022-10-30T07:22:45;101575.22;;;11.91;100.00
59789;BME280;47353;51.614;5.530;2022-10-30T07:25:11;101576.69;;;11.98;100.00
59789;BME280;47353;51.614;5.530;2022-10-30T07:27:47;101574.81;;;12.09;100.00
59789;BME280;47353;51.614;5.530;2022-10-30T07:30:15;101583.16;;;12.19;100.00
59789;BME280;47353;51.614;5.530;2022-10-30T07:32:41;101577.69;;;12.29;100.00
59789;BME280;47353;51.614;5.530;2022-10-30T07:35:09;101581.34;;;12.39;100.00
59789;BME280;47353;51.614;5.530;2022-10-30T07:37:34;101576.94;;;12.48;100.00
59789;BME280;47353;51.614;5.530;2022-10-30T07:40:00;101581.38;;;12.54;100.00
59789;BME280;47353;51.614;5.530;2022-10-30T07:42:25;101578.66;;;12.64;100.00
59789;BME280;47353;51.614;5.530;2022-10-30T07:44:51;101592.28;;;12.76;100.00
59789;BME280;47353;51.614;5.530;2022-10-30T07:47:16;101585.09;;;12.85;100.00
59789;BME280;47353;51.614;5.530;2022-10-30T07:49:41;101585.13;;;12.95;100.00
59789;BME280;47353;51.614;5.530;2022-10-30T07:52:07;101582.97;;;13.12;100.00
59789;BME280;47353;51.614;5.530;2022-10-30T07:54:32;101580.47;;;13.25;100.00
59789;BME280;47353;51.614;5.530;2022-10-30T07:56:58;101583.28;;;13.46;100.00
59789;BME280;47353;51.614;5.530;2022-10-30T07:59:24;101580.75;;;13.74;100.00
59789;BME280;47353;51.614;5.530;2022-10-30T08:01:50;101579.06;;;13.98;100.00
59789;BME280;47353;51.614;5.530;2022-10-30T08:04:15;101574.84;;;14.26;100.00
59789;BME280;47353;51.614;5.530;2022-10-30T08:06:41;101584.94;;;14.75;98.75
59789;BME280;47353;51.614;5.530;2022-10-30T08:09:07;101592.06;;;14.91;95.89
59789;BME280;47353;51.614;5.530;2022-10-30T08:11:32;101568.13;;;14.90;94.76
59789;BME280;47353;51.614;5.530;2022-10-30T08:13:58;101596.00;;;15.34;93.64
59789;BME280;47353;51.614;5.530;2022-10-30T08:16:23;101589.56;;;15.72;91.83
59789;BME280;47353;51.614;5.530;2022-10-30T08:18:49;101580.69;;;15.94;90.00
59789;BME280;47353;51.614;5.530;2022-10-30T08:21:15;101579.47;;;16.05;88.32
59789;BME280;47353;51.614;5.530;2022-10-30T08:23:40;101576.78;;;16.18;87.28
59789;BME280;47353;51.614;5.530;2022-10-30T08:26:06;101573.06;;;16.28;86.88
59789;BME280;47353;51.614;5.530;2022-10-30T08:28:32;101574.91;;;16.37;85.84
59789;BME280;47353;51.614;5.530;2022-10-30T08:30:58;101559.69;;;16.25;84.60
59789;BME280;47353;51.614;5.530;2022-10-30T08:33:24;101560.31;;;16.45;83.92
59789;BME280;47353;51.614;5.530;2022-10-30T08:35:51;101570.44;;;16.60;81.83
59789;BME280;47353;51.614;5.530;2022-10-30T08:38:17;101577.53;;;16.95;80.53
59789;BME280;47353;51.614;5.530;2022-10-30T08:40:43;101583.16;;;17.50;80.04
59789;BME280;47353;51.614;5.530;2022-10-30T08:43:09;101590.03;;;18.17;76.95
59789;BME280;47353;51.614;5.530;2022-10-30T08:45:34;101588.75;;;18.55;74.42
59789;BME280;47353;51.614;5.530;2022-10-30T08:48:01;101594.66;;;18.81;71.83
59789;BME280;47353;51.614;5.530;2022-10-30T08:50:31;101587.28;;;18.71;71.37
59789;BME280;47353;51.614;5.530;2022-10-30T08:53:08;101586.34;;;18.76;72.92
59789;BME280;47353;51.614;5.530;2022-10-30T08:55:35;101585.63;;;18.70;70.64
59789;BME280;47353;51.614;5.530;2022-10-30T08:58:00;101591.94;;;19.03;70.30
59789;BME280;47353;51.614;5.530;2022-10-30T09:00:26;101583.84;;;19.59;69.31
59789;BME280;47353;51.614;5.530;2022-10-30T09:02:52;101590.22;;;19.95;65.69
59789;BME280;47353;51.614;5.530;2022-10-30T09:05:18;101586.34;;;20.44;65.08
59789;BME280;47353;51.614;5.530;2022-10-30T09:07:43;101587.88;;;21.14;62.13
59789;BME280;47353;51.614;5.530;2022-10-30T09:10:09;101592.53;;;21.87;60.97
59789;BME280;47353;51.614;5.530;2022-10-30T09:12:35;101586.25;;;22.36;57.91
59789;BME280;47353;51.614;5.530;2022-10-30T09:15:00;101593.44;;;22.71;55.34
59789;BME280;47353;51.614;5.530;2022-10-30T09:17:26;101582.28;;;23.04;54.54
59789;BME280;47353;51.614;5.530;2022-10-30T09:19:51;101587.22;;;23.36;52.64
59789;BME280;47353;51.614;5.530;2022-10-30T09:22:17;101584.47;;;23.48;52.64
59789;BME280;47353;51.614;5.530;2022-10-30T09:24:42;101578.16;;;24.28;51.23
59789;BME280;47353;51.614;5.530;2022-10-30T09:27:08;101575.88;;;24.67;49.02
59789;BME280;47353;51.614;5.530;2022-10-30T09:29:33;101563.22;;;24.52;48.63
59789;BME280;47353;51.614;5.530;2022-10-30T09:31:59;101557.53;;;25.00;48.20
59789;BME280;47353;51.614;5.530;2022-10-30T09:34:25;101565.66;;;25.65;47.79
59789;BME280;47353;51.614;5.530;2022-10-30T09:36:55;101563.06;;;25.60;46.23
59789;BME280;47353;51.614;5.530;2022-10-30T09:39:20;101573.88;;;26.41;44.81
59789;BME280;47353;51.614;5.530;2022-10-30T09:49:49;101579.28;;;25.60;46.05
59789;BME280;47353;51.614;5.530;2022-10-30T09:52:31;101586.44;;;25.97;47.13
59789;BME280;47353;51.614;5.530;2022-10-30T09:57:39;101591.28;;;25.69;45.22
59789;BME280;47353;51.614;5.530;2022-10-30T10:00:08;101595.69;;;25.94;45.57
59789;BME280;47353;51.614;5.530;2022-10-30T10:02:52;101599.09;;;25.08;47.65
59789;BME280;47353;51.614;5.530;2022-10-30T10:05:24;101611.25;;;24.16;49.33
59789;BME280;47353;51.614;5.530;2022-10-30T10:07:54;101615.91;;;23.47;52.10
59789;BME280;47353;51.614;5.530;2022-10-30T10:13:13;101601.56;;;23.52;52.04
59789;BME280;47353;51.614;5.530;2022-10-30T10:15:49;101612.31;;;23.38;52.77
59789;BME280;47353;51.614;5.530;2022-10-30T10:18:25;101601.09;;;23.21;54.20
59789;BME280;47353;51.614;5.530;2022-10-30T10:20:53;101600.22;;;23.90;53.11
59789;BME280;47353;51.614;5.530;2022-10-30T10:23:42;101590.84;;;24.91;49.68
59789;BME280;47353;51.614;5.530;2022-10-30T10:26:35;101581.13;;;26.39;48.06
59789;BME280;47353;51.614;5.530;2022-10-30T10:29:31;101587.69;;;27.39;44.86
59789;BME280;47353;51.614;5.530;2022-10-30T10:35:23;101594.34;;;28.65;42.88
59789;BME280;47353;51.614;5.530;2022-10-30T10:43:35;101578.53;;;30.12;38.72
59789;BME280;47353;51.614;5.530;2022-10-30T10:52:03;101574.88;;;29.78;39.97
59789;BME280;47353;51.614;5.530;2022-10-30T10:54:38;101573.56;;;29.69;38.50
59789;BME280;47353;51.614;5.530;2022-10-30T10:57:06;101578.81;;;29.67;36.11
59789;BME280;47353;51.614;5.530;2022-10-30T10:59:42;101576.09;;;30.50;37.11
59789;BME280;47353;51.614;5.530;2022-10-30T11:04:51;101578.31;;;31.18;34.44
59789;BME280;47353;51.614;5.530;2022-10-30T11:07:24;101586.28;;;30.92;35.16
59789;BME280;47353;51.614;5.530;2022-10-30T11:09:54;101579.03;;;31.08;34.03
59789;BME280;47353;51.614;5.530;2022-10-30T11:12:26;101582.88;;;30.35;33.96
59789;BME280;47353;51.614;5.530;2022-10-30T11:14:53;101575.78;;;29.27;35.08
59789;BME280;47353;51.614;5.530;2022-10-30T11:17:23;101577.03;;;29.59;35.75
59789;BME280;47353;51.614;5.530;2022-10-30T11:19:55;101571.44;;;30.32;34.57
59789;BME280;47353;51.614;5.530;2022-10-30T11:22:30;101572.94;;;31.81;34.59
59789;BME280;47353;51.614;5.530;2022-10-30T11:27:41;101559.31;;;31.54;32.33
59789;BME280;47353;51.614;5.530;2022-10-30T11:30:23;101553.34;;;31.90;34.06
59789;BME280;47353;51.614;5.530;2022-10-30T11:32:49;101562.28;;;31.07;32.67
59789;BME280;47353;51.614;5.530;2022-10-30T11:35:17;101550.47;;;30.61;33.42
59789;BME280;47353;51.614;5.530;2022-10-30T11:37:45;101548.31;;;30.47;33.71
59789;BME280;47353;51.614;5.530;2022-10-30T11:42:53;101549.88;;;30.38;36.56
59789;BME280;47353;51.614;5.530;2022-10-30T11:45:32;101550.22;;;30.77;35.88
59789;BME280;47353;51.614;5.530;2022-10-30T11:47:59;101552.47;;;30.57;34.43
59789;BME280;47353;51.614;5.530;2022-10-30T11:50:28;101554.88;;;30.11;36.06
59789;BME280;47353;51.614;5.530;2022-10-30T11:53:18;101553.38;;;29.58;35.29
59789;BME280;47353;51.614;5.530;2022-10-30T11:55:45;101543.41;;;29.42;36.43
59789;BME280;47353;51.614;5.530;2022-10-30T11:58:37;101540.78;;;29.59;37.00
59789;BME280;47353;51.614;5.530;2022-10-30T12:01:33;101540.72;;;29.23;37.09
59789;BME280;47353;51.614;5.530;2022-10-30T12:04:23;101531.19;;;28.63;38.35
59789;BME280;47353;51.614;5.530;2022-10-30T12:07:14;101539.81;;;28.21;39.05
59789;BME280;47353;51.614;5.530;2022-10-30T12:09:43;101539.78;;;27.99;39.38
59789;BME280;47353;51.614;5.530;2022-10-30T12:12:22;101534.38;;;27.33;39.99
59789;BME280;47353;51.614;5.530;2022-10-30T12:14:50;101547.00;;;27.54;40.11
59789;BME280;47353;51.614;5.530;2022-10-30T12:17:17;101543.34;;;28.37;39.01
59789;BME280;47353;51.614;5.530;2022-10-30T12:19:51;101532.47;;;27.98;39.70
59789;BME280;47353;51.614;5.530;2022-10-30T12:22:31;101528.31;;;27.34;41.42
59789;BME280;47353;51.614;5.530;2022-10-30T12:25:03;101524.50;;;26.14;42.61
59789;BME280;47353;51.614;5.530;2022-10-30T12:27:34;101519.91;;;25.67;44.66
59789;BME280;47353;51.614;5.530;2022-10-30T12:32:38;101524.22;;;25.21;46.77
59789;BME280;47353;51.614;5.530;2022-10-30T12:37:52;101519.81;;;24.48;47.99
59789;BME280;47353;51.614;5.530;2022-10-30T12:40:35;101516.47;;;24.10;49.76
59789;BME280;47353;51.614;5.530;2022-10-30T12:43:19;101513.44;;;23.70;50.22
59789;BME280;47353;51.614;5.530;2022-10-30T12:45:49;101516.63;;;23.48;50.71
59789;BME280;47353;51.614;5.530;2022-10-30T12:48:27;101503.69;;;23.47;51.95
59789;BME280;47353;51.614;5.530;2022-10-30T12:54:03;101507.44;;;23.84;50.13
59789;BME280;47353;51.614;5.530;2022-10-30T12:56:37;101508.59;;;24.63;49.40
59789;BME280;47353;51.614;5.530;2022-10-30T13:04:46;101515.09;;;27.64;38.75
59789;BME280;47353;51.614;5.530;2022-10-30T13:07:30;101509.94;;;27.13;41.54
59789;BME280;47353;51.614;5.530;2022-10-30T13:12:31;101497.88;;;25.76;45.77
59789;BME280;47353;51.614;5.530;2022-10-30T13:17:33;101496.66;;;27.36;40.82
59789;BME280;47353;51.614;5.530;2022-10-30T13:19:59;101493.22;;;27.88;38.81
59789;BME280;47353;51.614;5.530;2022-10-30T13:22:27;101488.44;;;28.14;38.34
59789;BME280;47353;51.614;5.530;2022-10-30T13:25:07;101490.56;;;27.98;39.99
59789;BME280;47353;51.614;5.530;2022-10-30T13:27:46;101495.31;;;27.71;40.95
59789;BME280;47353;51.614;5.530;2022-10-30T13:30:19;101497.16;;;26.88;41.48
59789;BME280;47353;51.614;5.530;2022-10-30T13:35:30;101491.22;;;25.84;43.15
59789;BME280;47353;51.614;5.530;2022-10-30T14:00:02;101497.41;;;22.80;51.59
59789;BME280;47353;51.614;5.530;2022-10-30T14:02:55;101493.41;;;22.60;52.29
59789;BME280;47353;51.614;5.530;2022-10-30T14:10:48;101484.72;;;23.48;51.96
59789;BME280;47353;51.614;5.530;2022-10-30T14:13:28;101479.00;;;24.01;49.71
59789;BME280;47353;51.614;5.530;2022-10-30T14:16:00;101490.44;;;24.04;48.54
59789;BME280;47353;51.614;5.530;2022-10-30T14:18:38;101489.28;;;23.85;48.90
59789;BME280;47353;51.614;5.530;2022-10-30T14:21:29;101494.41;;;23.59;49.81
59789;BME280;47353;51.614;5.530;2022-10-30T14:24:17;101493.75;;;23.21;50.47
59789;BME280;47353;51.614;5.530;2022-10-30T14:26:50;101501.59;;;22.74;52.14
59789;BME280;47353;51.614;5.530;2022-10-30T14:31:58;101498.53;;;22.29;52.37
59789;BME280;47353;51.614;5.530;2022-10-30T14:37:09;101515.84;;;22.19;53.15
59789;BME280;47353;51.614;5.530;2022-10-30T14:39:39;101513.31;;;22.26;52.39
59789;BME280;47353;51.614;5.530;2022-10-30T14:42:20;101510.63;;;22.30;52.69
59789;BME280;47353;51.614;5.530;2022-10-30T14:48:06;101516.94;;;22.64;52.21